Terminal Aerodrome Forecast
Issued by NWS

Home | Current Version | Previous Version | Text Only | Print | Product List | Glossary On
Versions: 1 2 3 4 5 6 7 8 9 10 11 12 13 14 15 16 17 18 19 20 21 22
000
FTUS43 KDLH 061100
TAFHIB
TAF
KHIB 061140Z 0612/0712 20004KT P6SM SCT080
     FM061400 26007KT P6SM SCT080
     FM061800 30010KT P6SM SCT035
     FM070100 23006KT P6SM BKN120
     FM070400 20004KT P6SM VCSH SCT025 OVC040
      TEMPO 0704/0708 2SM -SN BKN025
     FM070800 30008KT P6SM BKN025 BKN050=

USA.gov is the U.S. government's official web portal to all federal, state and local government web resources and services.